Time;durP1;ratioP1;P1;durP2;ratioP2;P2;SDS_P1;SDS_P2;PMS_P1;PMS_P2;Temp;Humidity;BMP_temperature;BMP_pressure;BME280_temperature;BME280_humidity;BME280_pressure;Samples;Min_cycle;Max_cycle;Signal;HPM_P1;HPM_P2
2022/02/03 00:00:25;;;;;;;31.85;13.93;;;;;;;8.55;100.00;102197.66;5272477;28;20027;-83
2022/02/03 00:03:12;;;;;;;29.20;12.73;;;;;;;8.52;100.00;102192.53;5273645;28;20042;-83
2022/02/03 00:25:18;;;;;;;25.95;11.07;;;;;;;8.34;100.00;102151.19;5275255;28;20024;-82
2022/02/03 00:27:59;;;;;;;30.77;10.10;;;;;;;8.33;100.00;102157.47;5270209;28;20035;-82
2022/02/03 00:48:14;;;;;;;27.13;10.95;;;;;;;8.28;100.00;102140.94;5288576;28;20598;-82
2022/02/03 00:52:45;;;;;;;21.13;9.88;;;;;;;8.31;100.00;102149.56;5293825;28;20027;-82
2022/02/03 00:55:15;;;;;;;22.33;9.43;;;;;;;8.27;100.00;102156.13;5275844;28;20102;-82
2022/02/03 00:57:51;;;;;;;21.75;9.30;;;;;;;8.28;100.00;102156.97;5288990;28;20054;-83
2022/02/03 01:00:21;;;;;;;17.00;8.07;;;;;;;8.26;100.00;102151.75;5269851;28;20050;-83
2022/02/03 01:03:05;;;;;;;15.48;7.03;;;;;;;8.24;100.00;102155.53;5274744;28;20027;-82
2022/02/03 01:05:37;;;;;;;24.85;8.20;;;;;;;8.24;100.00;102152.88;5269151;28;20031;-82
2022/02/03 01:08:16;;;;;;;19.70;7.40;;;;;;;8.23;100.00;102156.47;5269860;28;20127;-82
2022/02/03 01:10:55;;;;;;;16.85;7.88;;;;;;;8.28;100.00;102146.28;5269663;28;20063;-82
2022/02/03 01:16:08;;;;;;;11.35;5.75;;;;;;;8.18;100.00;102132.81;5287276;28;20016;-81
2022/02/03 01:44:16;;;;;;;6.07;3.03;;;;;;;8.04;100.00;102141.88;5272590;28;20463;-78
2022/02/03 01:46:55;;;;;;;13.23;2.80;;;;;;;8.00;100.00;102136.91;5270706;28;20093;-79
2022/02/03 01:51:38;;;;;;;8.27;2.47;;;;;;;8.02;100.00;102140.28;5286813;28;20093;-78
2022/02/03 01:52:30;;;;;;;6.95;2.60;;;;;;;7.94;100.00;102138.22;5286173;28;20031;-77
2022/02/03 01:55:04;;;;;;;10.02;2.22;;;;;;;7.92;100.00;102137.47;5286094;28;20034;-78
2022/02/03 01:57:52;;;;;;;6.90;2.28;;;;;;;7.92;100.00;102133.94;5286741;28;20026;-78
2022/02/03 02:00:25;;;;;;;5.43;2.85;;;;;;;7.98;100.00;102131.69;5275331;28;20031;-78
2022/02/03 02:03:11;;;;;;;12.48;3.15;;;;;;;7.99;100.00;102125.34;5286151;28;20080;-77
2022/02/03 02:06:00;;;;;;;6.38;1.77;;;;;;;7.91;100.00;102122.41;5285767;28;20136;-78
2022/02/03 02:08:41;;;;;;;11.05;1.95;;;;;;;7.90;100.00;102119.88;5274128;28;20571;-78
2022/02/03 02:11:55;;;;;;;7.07;1.85;;;;;;;7.90;100.00;102119.88;5267823;28;20031;-78
2022/02/03 02:37:36;;;;;;;8.60;1.50;;;;;;;7.88;100.00;102081.72;5286152;28;20069;-77
2022/02/03 02:40:46;;;;;;;8.63;1.60;;;;;;;7.87;100.00;102083.53;5267539;28;20474;-78
2022/02/03 02:43:48;;;;;;;7.97;2.28;;;;;;;7.87;100.00;102067.50;5285398;28;20075;-77
2022/02/03 02:46:27;;;;;;;3.22;1.40;;;;;;;7.82;100.00;102063.50;5277562;28;20069;-77
2022/02/03 02:49:42;;;;;;;4.57;1.75;;;;;;;7.82;100.00;102050.97;5286993;28;20695;-78
2022/02/03 02:52:29;;;;;;;6.05;1.60;;;;;;;7.84;100.00;102046.38;5286424;28;20028;-78
2022/02/03 02:58:17;;;;;;;8.68;2.00;;;;;;;7.79;100.00;102049.41;5285674;28;20047;-78
2022/02/03 03:29:00;;;;;;;6.80;1.92;;;;;;;7.82;100.00;102029.59;5285024;28;20091;-77
2022/02/03 03:33:50;;;;;;;10.02;3.03;;;;;;;7.62;100.00;101977.72;5288117;28;20582;-78
2022/02/03 03:36:21;;;;;;;5.18;2.88;;;;;;;7.58;100.00;101968.28;5290142;28;20036;-77
2022/02/03 03:38:53;;;;;;;14.77;3.78;;;;;;;7.61;100.00;101969.84;5289659;28;20019;-78
2022/02/03 03:41:26;;;;;;;9.23;3.42;;;;;;;7.62;100.00;101967.03;5289632;28;20031;-78
2022/02/03 03:44:02;;;;;;;14.48;3.42;;;;;;;7.62;100.00;101956.38;5289913;28;20035;-78
2022/02/03 03:46:39;;;;;;;17.70;5.80;;;;;;;7.62;100.00;101947.50;5290287;28;20030;-78
2022/02/03 03:49:31;;;;;;;11.25;3.70;;;;;;;7.62;100.00;101951.03;5290022;28;20023;-77
2022/02/03 03:52:12;;;;;;;10.68;4.22;;;;;;;7.61;100.00;101946.66;5288212;28;20522;-78
2022/02/03 03:55:14;;;;;;;12.48;4.43;;;;;;;7.62;100.00;101942.16;5288269;28;20098;-78
2022/02/03 04:31:27;;;;;;;14.57;5.43;;;;;;;7.51;100.00;101916.31;5286682;28;20080;-78
2022/02/03 04:43:49;;;;;;;13.93;5.43;;;;;;;7.51;100.00;101927.00;5288699;28;20036;-78
2022/02/03 04:53:27;;;;;;;15.18;5.57;;;;;;;7.50;100.00;101909.28;5287286;28;20031;-77
2022/02/03 04:59:13;;;;;;;19.02;6.10;;;;;;;7.46;100.00;101916.66;5289068;28;20031;-78
2022/02/03 05:02:15;;;;;;;27.65;6.25;;;;;;;7.43;100.00;101900.91;5288863;28;20424;-77
2022/02/03 05:08:36;;;;;;;16.75;6.00;;;;;;;7.47;100.00;101886.31;5287496;28;20240;-78
2022/02/03 05:51:14;;;;;;;11.73;7.53;;;;;;;7.58;100.00;101833.88;5277971;28;20028;-78
2022/02/03 06:08:00;;;;;;;9.95;4.50;;;;;;;7.48;100.00;101809.72;5286146;28;20465;-78
2022/02/03 06:13:38;;;;;;;14.70;5.07;;;;;;;7.51;100.00;101798.81;5273888;28;20395;-78
2022/02/03 06:21:40;;;;;;;11.65;4.07;;;;;;;7.43;100.00;101791.44;5273605;28;20570;-78
2022/02/03 06:29:51;;;;;;;14.00;5.38;;;;;;;7.40;100.00;101794.34;5286855;28;20028;-79
2022/02/03 06:32:23;;;;;;;14.68;4.72;;;;;;;7.37;100.00;101799.91;5281722;28;20025;-81
2022/02/03 06:34:54;;;;;;;12.35;4.82;;;;;;;7.32;100.00;101788.75;5272277;28;20371;-79
2022/02/03 06:37:27;;;;;;;10.43;4.40;;;;;;;7.28;100.00;101781.97;5285877;28;20107;-80
2022/02/03 06:39:58;;;;;;;12.85;4.60;;;;;;;7.32;100.00;101780.75;5287175;28;20105;-81
2022/02/03 06:42:29;;;;;;;11.90;4.82;;;;;;;7.36;100.00;101798.22;5267788;28;20027;-81
2022/02/03 06:45:10;;;;;;;18.65;5.45;;;;;;;7.37;100.00;101804.41;5269839;28;20035;-81
2022/02/03 06:50:35;;;;;;;17.90;5.60;;;;;;;7.32;100.00;101780.75;5285916;28;20080;-79
2022/02/03 07:04:04;;;;;;;;;;;;;;;7.31;100.00;101781.72;5285707;28;20035;-78
2022/02/03 07:06:34;;;;;;;15.85;4.55;;;;;;;7.25;100.00;101775.06;5284929;28;19951;-78
2022/02/03 07:09:07;;;;;;;15.82;4.38;;;;;;;7.26;100.00;101783.91;5285271;28;20076;-77
2022/02/03 07:11:40;;;;;;;11.15;4.43;;;;;;;7.24;100.00;101781.38;5284727;28;20024;-77
2022/02/03 07:14:12;;;;;;;12.38;4.55;;;;;;;7.27;100.00;101780.25;5266890;28;20047;-77
2022/02/03 07:16:47;;;;;;;12.38;4.55;;;;;;;7.29;100.00;101770.34;5284869;28;20406;-77
2022/02/03 07:19:19;;;;;;;11.70;4.30;;;;;;;7.25;100.00;101766.19;5284886;28;20055;-77
2022/02/03 07:21:49;;;;;;;12.85;4.55;;;;;;;7.25;100.00;101766.19;5284641;28;20015;-77
2022/02/03 07:24:20;;;;;;;14.20;4.57;;;;;;;7.24;100.00;101756.50;5262117;28;20028;-77
2022/02/03 07:26:51;;;;;;;18.15;4.38;;;;;;;7.18;100.00;101757.00;5276973;28;20020;-77
2022/02/03 07:29:21;;;;;;;12.85;4.22;;;;;;;7.22;100.00;101755.75;5284747;28;20015;-77
2022/02/03 07:31:51;;;;;;;12.88;4.30;;;;;;;7.17;100.00;101763.28;5277775;28;20094;-77
2022/02/03 07:34:22;;;;;;;13.70;4.05;;;;;;;7.15;100.00;101750.06;5266550;28;20047;-77
2022/02/03 07:36:52;;;;;;;11.25;4.53;;;;;;;7.17;100.00;101756.13;5284533;28;20379;-77
2022/02/03 07:39:23;;;;;;;14.00;3.75;;;;;;;7.16;100.00;101754.44;5285245;28;20020;-77
2022/02/03 07:41:55;;;;;;;9.70;3.83;;;;;;;7.16;100.00;101750.91;5284635;28;20108;-77
2022/02/03 07:44:26;;;;;;;9.35;4.20;;;;;;;7.15;100.00;101751.91;5284836;28;20032;-77
2022/02/03 07:46:56;;;;;;;16.88;5.18;;;;;;;7.13;100.00;101740.47;5284761;28;20070;-77
2022/02/03 07:49:29;;;;;;;15.50;4.80;;;;;;;7.17;100.00;101749.94;5284642;28;20031;-77
2022/02/03 07:52:02;;;;;;;13.68;4.35;;;;;;;7.09;100.00;101745.22;5285193;28;20019;-77
2022/02/03 07:54:32;;;;;;;13.00;4.28;;;;;;;7.11;100.00;101734.44;5288419;28;20027;-77
2022/02/03 07:57:03;;;;;;;10.73;3.78;;;;;;;7.13;100.00;101738.69;5288666;28;20106;-77
2022/02/03 07:59:34;;;;;;;18.85;4.10;;;;;;;7.14;100.00;101732.38;5288510;28;20103;-77
2022/02/03 08:02:05;;;;;;;16.05;5.15;;;;;;;7.19;100.00;101727.50;5288912;28;20015;-76
2022/02/03 08:04:42;;;;;;;12.98;4.55;;;;;;;7.20;100.00;101723.88;5288814;28;20032;-77
2022/02/03 08:07:16;;;;;;;12.45;3.95;;;;;;;7.17;100.00;101723.25;5289465;28;20027;-77
2022/02/03 08:12:20;;;;;;;14.05;4.07;;;;;;;7.18;100.00;101722.31;5289177;28;20039;-78
2022/02/03 08:14:51;;;;;;;17.60;5.70;;;;;;;7.17;100.00;101721.44;5289402;28;20141;-77
2022/02/03 08:17:28;;;;;;;14.35;5.43;;;;;;;7.20;100.00;101725.69;5288812;28;20092;-77
2022/02/03 08:20:03;;;;;;;14.20;4.68;;;;;;;7.20;100.00;101709.69;5291674;28;20027;-82
2022/02/03 08:22:40;;;;;;;;;;;;;;;7.19;100.00;101721.34;5289354;28;20406;-78
2022/02/03 08:33:03;;;;;;;18.27;4.90;;;;;;;7.22;100.00;101723.72;5281938;28;20401;-77
2022/02/03 08:38:16;;;;;;;22.92;5.13;;;;;;;7.18;100.00;101716.97;5289489;28;20031;-77
2022/02/03 08:43:36;;;;;;;18.80;4.50;;;;;;;7.22;100.00;101713.06;5287996;28;20074;-77
2022/02/03 08:46:08;;;;;;;22.17;4.63;;;;;;;7.23;100.00;101710.28;5289180;28;20390;-78
2022/02/03 08:48:39;;;;;;;14.82;4.20;;;;;;;7.25;100.00;101708.34;5289379;28;20527;-78
2022/02/03 08:51:12;;;;;;;13.57;4.38;;;;;;;7.20;100.00;101693.66;5290055;28;20102;-79
2022/02/03 08:53:48;;;;;;;13.93;3.92;;;;;;;7.20;100.00;101691.00;5290501;28;20030;-78
2022/02/03 09:38:07;;;;;;;12.30;4.63;;;;;;;7.32;100.00;101678.47;5288566;28;20034;-86
2022/02/03 09:59:59;;;;;;;16.52;4.75;;;;;;;7.38;100.00;101660.16;5286150;28;20355;-79
2022/02/03 10:02:32;;;;;;;17.00;4.70;;;;;;;7.43;100.00;101665.97;5285955;28;20115;-79
2022/02/03 10:05:21;;;;;;;17.20;5.43;;;;;;;7.36;100.00;101656.75;5285662;28;20107;-79
2022/02/03 10:07:52;;;;;;;13.27;5.20;;;;;;;7.42;100.00;101666.06;5268786;28;20138;-79
2022/02/03 10:10:22;;;;;;;20.50;5.70;;;;;;;7.41;100.00;101665.22;5286701;28;20024;-79
2022/02/03 10:12:53;;;;;;;22.38;4.65;;;;;;;7.41;100.00;101665.22;5267973;28;20470;-79
2022/02/03 10:15:23;;;;;;;15.07;6.07;;;;;;;7.36;100.00;101669.25;5286107;28;20056;-79
2022/02/03 10:17:57;;;;;;;14.82;5.28;;;;;;;7.32;100.00;101657.13;5286501;28;20026;-79
2022/02/03 10:20:29;;;;;;;15.52;4.97;;;;;;;7.35;100.00;101663.06;5268592;28;20027;-78
2022/02/03 10:23:03;;;;;;;16.15;5.38;;;;;;;7.30;100.00;101662.59;5286023;28;20190;-80
2022/02/03 10:25:36;;;;;;;18.50;5.70;;;;;;;7.28;100.00;101667.22;5272148;28;20036;-79
2022/02/03 10:28:12;;;;;;;20.27;5.40;;;;;;;7.36;100.00;101661.22;5285987;28;20107;-80
2022/02/03 10:30:51;;;;;;;22.70;5.78;;;;;;;7.30;100.00;101651.91;5284250;28;20028;-80
2022/02/03 10:33:33;;;;;;;19.65;5.93;;;;;;;7.31;100.00;101650.09;5264612;28;20107;-79
2022/02/03 10:36:11;;;;;;;12.05;4.47;;;;;;;7.23;100.00;101650.72;5273868;28;20433;-79
2022/02/03 10:42:10;;;;;;;16.60;5.40;;;;;;;7.25;100.00;101652.28;5285725;28;20379;-81
2022/02/03 11:01:50;;;;;;;15.05;4.75;;;;;;;7.24;100.00;101623.06;5285333;28;20126;-79
2022/02/03 11:07:25;;;;;;;13.43;4.57;;;;;;;7.40;100.00;101628.81;5285703;28;20026;-79
2022/02/03 11:10:06;;;;;;;15.37;6.90;;;;;;;7.46;100.00;101625.63;5285546;28;20104;-79
2022/02/03 11:12:37;;;;;;;21.85;5.15;;;;;;;7.47;100.00;101624.66;5285448;28;20019;-79
2022/02/03 11:15:10;;;;;;;20.35;4.72;;;;;;;7.53;100.00;101631.34;5284783;28;20024;-80
2022/02/03 11:17:43;;;;;;;15.82;4.78;;;;;;;7.54;100.00;101633.03;5284737;28;20156;-79
2022/02/03 11:20:16;;;;;;;16.20;5.07;;;;;;;7.57;100.00;101621.22;5284696;28;20022;-80
2022/02/03 11:33:47;;;;;;;13.68;4.65;;;;;;;7.74;100.00;101593.97;5284095;28;20027;-79
2022/02/03 11:39:27;;;;;;;26.85;5.07;;;;;;;7.76;100.00;101586.66;5289333;28;20503;-79
2022/02/03 11:50:50;;;;;;;14.63;4.13;;;;;;;7.83;100.00;101557.59;5289038;28;20015;-79
2022/02/03 12:01:48;;;;;;;13.80;4.65;;;;;;;7.84;100.00;101552.16;5288607;28;20192;-79
2022/02/03 12:04:54;;;;;;;12.40;5.07;;;;;;;7.85;100.00;101543.16;5288251;28;20039;-79
2022/02/03 12:22:37;;;;;;;14.85;5.28;;;;;;;7.78;100.00;101507.22;5267545;28;20031;-80
2022/02/03 12:31:24;;;;;;;16.73;5.60;;;;;;;7.77;100.00;101505.56;5272322;28;20038;-79
2022/02/03 12:39:46;;;;;;;16.90;5.90;;;;;;;7.85;100.00;101495.06;5286532;28;20038;-79
2022/02/03 12:42:21;;;;;;;18.27;5.10;;;;;;;7.84;100.00;101497.88;5288096;28;20357;-85
2022/02/03 12:45:01;;;;;;;20.90;6.07;;;;;;;7.82;100.00;101495.31;5270499;28;20027;-79
2022/02/03 12:47:31;;;;;;;13.32;6.05;;;;;;;7.79;100.00;101493.78;5288455;28;20146;-79
2022/02/03 12:50:02;;;;;;;19.23;6.22;;;;;;;7.80;100.00;101483.94;5287525;28;20118;-80
2022/02/03 12:52:32;;;;;;;20.98;5.35;;;;;;;7.84;100.00;101480.03;5287681;28;20034;-80
2022/02/03 12:55:03;;;;;;;17.55;6.47;;;;;;;7.82;100.00;101489.13;5287147;28;20027;-79
2022/02/03 12:57:35;;;;;;;14.27;5.57;;;;;;;7.84;100.00;101482.69;5269105;28;20127;-79
2022/02/03 13:00:06;;;;;;;19.60;5.82;;;;;;;7.90;100.00;101489.31;5287350;28;20055;-82
2022/02/03 13:02:36;;;;;;;24.17;7.47;;;;;;;7.99;100.00;101493.88;5287630;28;20066;-79
2022/02/03 13:05:07;;;;;;;20.35;6.57;;;;;;;7.92;100.00;101496.22;5287458;28;20030;-80
2022/02/03 13:07:37;;;;;;;30.88;12.40;;;;;;;8.04;100.00;101497.00;5269290;28;20110;-79
2022/02/03 13:10:11;;;;;;;20.52;7.45;;;;;;;7.98;100.00;101495.69;5286931;28;20031;-79
2022/02/03 13:12:48;;;;;;;17.85;5.82;;;;;;;8.04;100.00;101492.47;5287028;28;20590;-79
2022/02/03 13:15:33;;;;;;;16.58;6.50;;;;;;;8.08;100.00;101497.53;5287311;28;20203;-78
2022/02/03 13:18:10;;;;;;;11.00;5.45;;;;;;;8.04;100.00;101495.16;5288636;28;20024;-78
2022/02/03 13:20:47;;;;;;;12.48;5.35;;;;;;;7.86;100.00;101487.88;5286723;28;20533;-78
2022/02/03 13:23:22;;;;;;;18.70;6.55;;;;;;;7.83;100.00;101489.00;5287212;28;20030;-77
2022/02/03 13:28:57;;;;;;;17.55;6.18;;;;;;;7.69;100.00;101482.19;5286550;28;20019;-77
2022/02/03 13:31:45;;;;;;;15.45;6.60;;;;;;;7.68;100.00;101482.28;5284078;28;20019;-77
2022/02/03 13:34:29;;;;;;;18.80;7.55;;;;;;;7.64;100.00;101476.41;5286273;28;20030;-76
2022/02/03 13:37:20;;;;;;;16.67;6.78;;;;;;;7.59;100.00;101467.09;5286330;28;20046;-76
2022/02/03 13:40:14;;;;;;;21.52;7.38;;;;;;;7.52;100.00;101475.59;5286587;28;20378;-76
2022/02/03 13:42:49;;;;;;;17.05;6.72;;;;;;;7.49;100.00;101472.38;5275448;28;20140;-77
2022/02/03 13:45:21;;;;;;;14.30;6.68;;;;;;;7.41;100.00;101473.00;5286148;28;20019;-77
2022/02/03 13:47:52;;;;;;;17.25;7.35;;;;;;;7.47;100.00;101471.63;5286208;28;20030;-78
2022/02/03 13:50:27;;;;;;;13.98;7.55;;;;;;;7.46;100.00;101476.13;5285796;28;20474;-77
2022/02/03 13:53:14;;;;;;;17.50;8.18;;;;;;;7.38;100.00;101472.41;5286129;28;20487;-77
2022/02/03 14:19:01;;;;;;;18.85;7.90;;;;;;;7.22;100.00;101443.50;5285650;28;20034;-77
2022/02/03 14:27:25;;;;;;;19.20;8.82;;;;;;;7.23;100.00;101431.88;5281892;28;20073;-77
2022/02/03 14:30:04;;;;;;;24.10;9.43;;;;;;;7.24;100.00;101437.09;5285664;28;20050;-77
2022/02/03 14:32:38;;;;;;;17.48;9.48;;;;;;;7.37;100.00;101423.53;5278697;28;20019;-77
2022/02/03 14:35:11;;;;;;;15.85;7.97;;;;;;;7.23;100.00;101426.56;5267046;28;20092;-78
2022/02/03 14:37:48;;;;;;;30.92;9.05;;;;;;;7.34;100.00;101422.97;5267020;28;20471;-77
2022/02/03 14:40:33;;;;;;;19.65;8.65;;;;;;;7.36;100.00;101421.84;5285032;28;20032;-77
2022/02/03 14:43:05;;;;;;;22.80;8.75;;;;;;;7.42;100.00;101421.31;5285373;28;20038;-77
2022/02/03 14:45:36;;;;;;;21.27;7.93;;;;;;;7.40;100.00;101425.09;5284956;28;20093;-77
2022/02/03 14:48:06;;;;;;;30.95;9.10;;;;;;;7.43;100.00;101422.16;5285120;28;20028;-78
2022/02/03 14:50:39;;;;;;;22.80;8.57;;;;;;;7.36;100.00;101427.19;5281006;28;20023;-78
2022/02/03 14:53:30;;;;;;;27.17;9.15;;;;;;;7.31;100.00;101432.06;5286607;27;20080;-77
2022/02/03 14:59:00;;;;;;;23.60;9.60;;;;;;;7.15;100.00;101421.00;5269727;28;20030;-78
2022/02/03 15:01:32;;;;;;;23.88;9.57;;;;;;;7.22;100.00;101419.50;5284142;28;20023;-78
2022/02/03 15:04:05;;;;;;;27.35;11.18;;;;;;;7.19;100.00;101403.75;5288809;28;20024;-77
2022/02/03 15:12:39;;;;;;;22.08;10.02;;;;;;;7.21;100.00;101409.81;5288839;28;20050;-77
2022/02/03 15:15:11;;;;;;;18.73;9.05;;;;;;;7.19;100.00;101406.44;5277314;28;20031;-77
2022/02/03 15:17:41;;;;;;;24.48;10.77;;;;;;;7.16;100.00;101410.19;5288830;28;20034;-77
2022/02/03 15:20:12;;;;;;;21.65;9.57;;;;;;;7.06;100.00;101403.09;5288984;28;20530;-77
2022/02/03 15:22:42;;;;;;;21.92;10.32;;;;;;;7.03;100.00;101398.00;5288429;28;20398;-78
2022/02/03 15:25:13;;;;;;;32.40;10.98;;;;;;;6.96;100.00;101395.03;5257314;28;20028;-77
2022/02/03 15:27:43;;;;;;;23.77;10.40;;;;;;;6.96;100.00;101387.88;5287608;28;20024;-78
2022/02/03 15:30:15;;;;;;;31.75;11.43;;;;;;;6.97;100.00;101388.72;5270226;28;20481;-77
2022/02/03 15:32:45;;;;;;;29.27;11.27;;;;;;;6.98;100.00;101385.09;5281268;28;20024;-77
2022/02/03 15:35:24;;;;;;;36.63;10.55;;;;;;;7.04;100.00;101384.56;5288493;28;20118;-77
2022/02/03 15:37:55;;;;;;;24.83;10.40;;;;;;;7.08;100.00;101380.66;5287927;28;20051;-77
2022/02/03 15:40:29;;;;;;;24.63;11.35;;;;;;;7.01;100.00;101374.97;5288089;28;20063;-77
2022/02/03 15:45:55;;;;;;;22.90;10.48;;;;;;;6.98;100.00;101367.25;5276728;28;20024;-78
2022/02/03 15:51:08;;;;;;;22.15;11.10;;;;;;;6.99;100.00;101368.94;5287792;28;20102;-77
2022/02/03 16:18:37;;;;;;;26.03;12.73;;;;;;;6.92;100.00;101359.75;5287435;28;19908;-78
2022/02/03 16:54:33;;;;;;;38.42;14.48;;;;;;;6.81;100.00;101362.50;5278937;28;20059;-80
2022/02/03 16:57:14;;;;;;;31.67;13.15;;;;;;;6.85;100.00;101365.75;5280742;28;20063;-80
2022/02/03 16:59:52;;;;;;;35.53;14.50;;;;;;;6.79;100.00;101363.63;5281253;28;20558;-80
2022/02/03 17:02:24;;;;;;;37.80;14.10;;;;;;;6.81;100.00;101357.16;5285685;28;20028;-80
2022/02/03 17:04:57;;;;;;;30.35;13.20;;;;;;;6.82;100.00;101353.50;5279393;28;20096;-80
2022/02/03 17:07:27;;;;;;;25.60;13.10;;;;;;;6.85;100.00;101355.09;5263257;28;20524;-80
2022/02/03 17:09:58;;;;;;;29.33;13.80;;;;;;;6.85;100.00;101366.59;5262076;28;20023;-80
2022/02/03 17:12:28;;;;;;;32.17;14.98;;;;;;;6.85;100.00;101363.09;5262836;28;20024;-80
2022/02/03 17:14:59;;;;;;;35.72;14.68;;;;;;;6.84;100.00;101348.91;5261069;28;20023;-79
2022/02/03 17:17:30;;;;;;;35.58;17.38;;;;;;;6.89;100.00;101352.03;5241187;28;20084;-80
2022/02/03 17:20:02;;;;;;;37.75;17.73;;;;;;;6.93;100.00;101350.81;5277194;28;20064;-82
2022/02/03 17:22:38;;;;;;;27.45;12.43;;;;;;;6.96;100.00;101361.19;5278582;28;20031;-81
2022/02/03 17:28:02;;;;;;;29.90;14.13;;;;;;;6.96;100.00;101355.84;5278325;28;20088;-81
2022/02/03 17:30:40;;;;;;;30.98;13.70;;;;;;;7.00;100.00;101346.63;5278786;28;20540;-82
2022/02/03 17:53:42;;;;;;;35.40;13.77;;;;;;;7.04;100.00;101362.38;5275523;28;20094;-78
2022/02/03 18:19:09;;;;;;;29.67;14.98;;;;;;;6.93;100.00;101344.63;5274505;28;20029;-78
2022/02/03 18:51:22;;;;;;;43.35;18.75;;;;;;;6.81;100.00;101351.81;5274109;28;20020;-79
2022/02/03 18:56:49;;;;;;;44.00;19.70;;;;;;;6.80;100.00;101352.81;5274396;28;20391;-78
2022/02/03 19:11:25;;;;;;;47.80;21.10;;;;;;;6.86;100.00;101362.94;5276922;28;20117;-77
2022/02/03 19:14:23;;;;;;;43.63;19.52;;;;;;;6.80;100.00;101358.13;5272541;28;20031;-78
2022/02/03 19:20:54;;;;;;;47.28;20.75;;;;;;;6.76;100.00;101351.38;5277718;28;20053;-78
2022/02/03 19:24:50;;;;;;;49.08;20.95;;;;;;;6.85;100.00;101363.09;5278527;28;20019;-78
2022/02/03 20:11:35;;;;;;;42.13;17.40;;;;;;;6.91;100.00;101363.41;5281375;28;20019;-78
2022/02/03 20:14:12;;;;;;;38.17;17.45;;;;;;;6.95;100.00;101369.34;5280691;28;20020;-78
2022/02/03 20:16:43;;;;;;;46.30;18.55;;;;;;;6.94;100.00;101371.16;5281878;28;20026;-78
2022/02/03 20:19:15;;;;;;;35.72;17.00;;;;;;;6.93;100.00;101377.47;5260054;28;20024;-78
2022/02/03 20:21:46;;;;;;;38.15;17.67;;;;;;;6.97;100.00;101368.22;5278548;28;20059;-78
2022/02/03 20:24:17;;;;;;;42.75;18.20;;;;;;;6.98;100.00;101375.25;5278111;28;20027;-78
2022/02/03 20:26:47;;;;;;;41.03;17.58;;;;;;;6.93;100.00;101361.47;5279040;28;20578;-78
2022/02/03 20:29:18;;;;;;;37.55;16.52;;;;;;;6.95;100.00;101364.84;5261302;28;20063;-78
2022/02/03 20:31:48;;;;;;;39.92;18.27;;;;;;;6.92;100.00;101359.75;5280096;28;20020;-78
2022/02/03 20:34:18;;;;;;;43.45;17.10;;;;;;;6.92;100.00;101358.91;5278282;28;20178;-78
2022/02/03 20:36:49;;;;;;;34.10;16.75;;;;;;;6.94;100.00;101356.97;5278193;28;20043;-78
2022/02/03 20:39:19;;;;;;;34.45;16.60;;;;;;;6.98;100.00;101359.25;5278377;28;20052;-78
2022/02/03 20:41:50;;;;;;;38.13;17.42;;;;;;;6.97;100.00;101360.22;5277871;28;20663;-78
2022/02/03 20:44:20;;;;;;;45.17;18.40;;;;;;;6.98;100.00;101361.94;5276899;28;20434;-78
2022/02/03 20:46:51;;;;;;;39.75;16.85;;;;;;;6.93;100.00;101361.47;5277420;28;20595;-78
2022/02/03 20:49:21;;;;;;;31.63;14.80;;;;;;;6.98;100.00;101359.25;5259683;28;20103;-78
2022/02/03 20:51:52;;;;;;;33.65;16.67;;;;;;;6.99;100.00;101357.44;5277928;28;20015;-78
2022/02/03 20:54:23;;;;;;;35.10;16.70;;;;;;;6.96;100.00;101353.19;5277464;28;20024;-78
2022/02/03 20:56:53;;;;;;;38.63;16.67;;;;;;;6.90;100.00;101353.72;5259206;28;20122;-78
2022/02/03 20:59:28;;;;;;;38.17;17.48;;;;;;;6.96;100.00;101357.69;5258978;28;20032;-78
2022/02/03 21:02:02;;;;;;;71.70;34.17;;;;;;;6.99;100.00;101357.44;5275701;28;20059;-78
2022/02/03 21:04:56;;;;;;;57.75;24.33;;;;;;;6.96;100.00;101355.00;5276491;28;20047;-78
2022/02/03 21:07:24;;;;;;;50.25;22.48;;;;;;;6.97;100.00;101356.69;5276701;28;20054;-78
2022/02/03 21:09:55;;;;;;;39.00;17.00;;;;;;;6.96;100.00;101349.69;5259704;28;20028;-78
2022/02/03 21:12:25;;;;;;;41.70;18.63;;;;;;;6.95;100.00;101351.50;5277318;28;20415;-78
2022/02/03 21:14:58;;;;;;;39.65;17.80;;;;;;;6.95;100.00;101343.50;5277530;28;20035;-82
2022/02/03 21:17:30;;;;;;;40.28;17.52;;;;;;;6.94;100.00;101347.16;5276384;28;20031;-78
2022/02/03 21:22:50;;;;;;;37.67;17.27;;;;;;;7.03;100.00;101350.00;5278352;28;20047;-78
2022/02/03 21:28:16;;;;;;;44.28;18.60;;;;;;;6.97;100.00;101340.69;5279876;28;20036;-78
2022/02/03 21:30:49;;;;;;;38.55;17.35;;;;;;;6.99;100.00;101339.59;5279448;28;20082;-79
2022/02/03 21:33:25;;;;;;;46.03;20.48;;;;;;;7.01;100.00;101344.78;5277212;28;20020;-78
2022/02/03 21:36:06;;;;;;;37.45;16.70;;;;;;;6.96;100.00;101336.34;5277359;28;20103;-78
2022/02/03 21:38:39;;;;;;;41.75;17.17;;;;;;;7.00;100.00;101335.09;5277638;28;20027;-78
2022/02/03 21:41:11;;;;;;;48.58;19.75;;;;;;;7.00;100.00;101341.28;5278031;28;20023;-78
2022/02/03 21:43:41;;;;;;;40.47;17.35;;;;;;;6.99;100.00;101339.59;5279289;28;20062;-78
2022/02/03 21:46:12;;;;;;;43.20;17.15;;;;;;;6.97;100.00;101330.03;5278667;28;20055;-78
2022/02/03 21:48:48;;;;;;;40.17;17.80;;;;;;;6.97;100.00;101335.34;5277316;28;20024;-78
2022/02/03 21:51:24;;;;;;;37.20;17.00;;;;;;;6.96;100.00;101329.19;5277559;28;20494;-78
2022/02/03 21:53:55;;;;;;;39.55;17.35;;;;;;;6.97;100.00;101338.88;5275118;28;20027;-79
2022/02/03 21:56:25;;;;;;;39.90;17.70;;;;;;;6.98;100.00;101340.59;5265081;28;20032;-77
2022/02/03 21:58:56;;;;;;;40.47;15.73;;;;;;;7.01;100.00;101340.31;5260845;28;20024;-79
2022/02/03 22:01:29;;;;;;;41.90;17.38;;;;;;;7.03;100.00;101342.00;5266370;28;20367;-77
2022/02/03 22:03:59;;;;;;;35.90;16.33;;;;;;;7.05;100.00;101337.38;5279678;28;20067;-83
2022/02/03 22:06:29;;;;;;;42.13;17.50;;;;;;;7.04;100.00;101331.22;5247671;28;20055;-84
2022/02/03 22:09:00;;;;;;;37.75;17.60;;;;;;;7.06;100.00;101333.72;5265648;28;20643;-82
2022/02/03 22:11:31;;;;;;;43.10;16.95;;;;;;;7.07;100.00;101335.41;5279990;28;20038;-79
2022/02/03 22:14:01;;;;;;;35.75;16.00;;;;;;;7.07;100.00;101330.94;5279574;28;20509;-78
2022/02/03 22:16:34;;;;;;;36.00;16.33;;;;;;;7.06;100.00;101339.91;5278162;28;20035;-78
2022/02/03 22:19:04;;;;;;;40.40;16.30;;;;;;;7.02;100.00;101333.16;5276141;28;20039;-79
2022/02/03 22:21:46;;;;;;;39.63;16.52;;;;;;;7.04;100.00;101341.88;5275797;28;20024;-80
2022/02/03 22:24:26;;;;;;;39.28;16.33;;;;;;;7.01;100.00;101342.97;5258910;28;20066;-79
2022/02/03 22:43:53;;;;;;;30.60;13.98;;;;;;;7.11;100.00;101334.19;5275516;28;20686;-80
2022/02/03 22:49:07;;;;;;;33.30;15.23;;;;;;;7.14;100.00;101323.25;5276292;28;20173;-80
2022/02/03 22:51:41;;;;;;;44.55;15.05;;;;;;;7.12;100.00;101331.38;5275332;28;20031;-80
2022/02/03 22:54:13;;;;;;;32.38;13.60;;;;;;;7.10;100.00;101325.34;5274808;28;20042;-81
2022/02/03 22:56:43;;;;;;;32.47;13.20;;;;;;;7.12;100.00;101325.19;5276147;28;20036;-81
2022/02/03 23:01:44;;;;;;;29.60;14.27;;;;;;;7.08;100.00;101332.63;5278530;28;20576;-80
2022/02/03 23:04:17;;;;;;;37.25;14.85;;;;;;;7.10;100.00;101329.84;5286979;28;20023;-80
2022/02/03 23:06:54;;;;;;;31.42;13.38;;;;;;;7.11;100.00;101323.50;5285258;28;20027;-77
2022/02/03 23:09:46;;;;;;;31.90;13.85;;;;;;;7.07;100.00;101328.25;5286141;28;20016;-78
2022/02/03 23:12:39;;;;;;;29.85;13.38;;;;;;;7.07;100.00;101322.06;5284587;28;20383;-78
2022/02/03 23:20:16;;;;;;;33.78;14.25;;;;;;;7.03;100.00;101323.31;5284730;28;20024;-78
2022/02/03 23:22:46;;;;;;;30.45;13.98;;;;;;;6.99;100.00;101322.75;5284735;28;20062;-78
2022/02/03 23:25:20;;;;;;;28.65;13.85;;;;;;;7.03;100.00;101317.97;5275216;28;20055;-77
2022/02/03 23:30:31;;;;;;;30.95;13.88;;;;;;;7.03;100.00;101317.97;5289047;28;20478;-78
2022/02/03 23:33:02;;;;;;;26.27;12.18;;;;;;;7.06;100.00;101325.72;5286623;28;20022;-78